Valle Azzurra — ICEG — position and weather

sailwx.info

Track history (hours):
 
Tides and Currents Weather Stations Pressure Air Temp Water Temp Dewpoint Dewpoint Depression Visibility Wind Speed Wind Dir Waves Ship Positions

Valle Azzurra

Last reported at 2017-Feb-21 23:33 UTC. Time now 2017-Mar-30 02:38 UTC.
Position N 27°35' W 015°14'.
Warning: this ship's position is 36 days out of date.

Length 183 m; draft 11.5 m.

Type: Tanker. MMSI: 247226600.

Date/timePositionNaut miles runAvg speedWind from/ knotsBaromVisibWave heightAir tempDewpointWater temp
2017-Feb-21 23:33N 27°35' W 015°14'1313.6
2017-Feb-21 22:33N 27°47' W 015°09'1313.5
2017-Feb-21 21:33N 27°60' W 015°04'1313.3
2017-Feb-21 20:33N 28°12' W 014°58'1313.1
2017-Feb-21 19:33N 28°24' W 014°53'1313.1
2017-Feb-21 18:32N 28°37' W 014°48'64613.2
2017-Feb-19 17:29N 39°02' W 011°30'63212.9
2017-Feb-17 16:33N 48°46' W 005°54'1211.8
2017-Feb-17 15:33N 48°56' W 005°45'1312.9
2017-Feb-17 14:31N 49°03' W 005°27'1313.3
2017-Feb-17 13:33N 49°09' W 005°10'5112.6
2017-Feb-17 09:32N 49°35' W 004°03'1111.6
2017-Feb-17 08:33N 49°41' W 003°48'1212.0
2017-Feb-17 07:34N 49°47' W 003°32'1312.8
2017-Feb-17 06:33N 49°53' W 003°15'1413.7
2017-Feb-17 05:33N 49°59' W 002°56'2014.4
2017-Feb-17 04:09N 50°04' W 002°26'1113.8
2017-Feb-17 03:23N 50°07' W 002°10'1112.8
2017-Feb-17 02:33N 50°10' W 001°54'1111.4
2017-Feb-17 01:33N 50°13' W 001°37'1010.2
2017-Feb-17 00:33N 50°16' W 001°21'9 9.5
2017-Feb-16 23:33N 50°18' W 001°07'10 9.7
2017-Feb-16 22:33N 50°21' W 000°52'1111.2
2017-Feb-16 21:33N 50°24' W 000°36'1212.5
2017-Feb-16 20:33N 50°28' W 000°17'1313.2
2017-Feb-16 19:33N 50°31' E 000°03'1413.4
2017-Feb-16 18:33N 50°35' E 000°24'3611.7
2017-Feb-16 15:29N 50°54' E 001°11'9 9.8
2017-Feb-16 14:33N 51°01' E 001°21'1010.4
2017-Feb-16 13:33N 51°07' E 001°34'1212.3
2017-Feb-16 12:33N 51°15' E 001°49'1212.0
2017-Feb-16 11:33N 51°24' E 002°02'1212.3
2017-Feb-16 10:33N 51°21' E 002°21'1312.8
2017-Feb-16 09:33N 51°22' E 002°41'1211.6
2017-Feb-16 08:33N 51°24' E 002°60'1212.4
2017-Feb-16 07:33N 51°24' E 003°20'1212.0
2017-Feb-16 06:33N 51°26' E 003°39'10 9.9
2017-Feb-16 05:33N 51°21' E 003°52'8 7.6
2017-Feb-16 04:33N 51°25' E 004°02'6 5.9
2017-Feb-16 03:33N 51°24' E 004°11'5 5.0
2017-Feb-16 02:34N 51°21' E 004°17'0 0.0
2017-Feb-16 01:33N 51°21' E 004°17'1 0.5
2017-Feb-16 00:33N 51°21' E 004°18'5 4.6
2017-Feb-15 23:33N 51°16' E 004°21'0 0.0
2017-Feb-15 22:32N 51°16' E 004°21'0 0.0
2017-Feb-15 21:32N 51°16' E 004°21'0 0.0
2017-Feb-15 20:32N 51°16' E 004°21'0 0.0
2017-Feb-15 19:23N 51°16' E 004°21'0 0.0
2017-Feb-15 18:29N 51°16' E 004°21'0 0.0
2017-Feb-15 17:32N 51°16' E 004°21'0 0.0
2017-Feb-15 16:29N 51°16' E 004°21'0 0.0
2017-Feb-15 15:26N 51°16' E 004°21'0 0.0
2017-Feb-15 14:32N 51°16' E 004°21'0 0.0
2017-Feb-15 13:32N 51°16' E 004°21'0 0.0
2017-Feb-15 12:26N 51°16' E 004°21'0 0.0
2017-Feb-15 11:29N 51°16' E 004°21'0 0.0
2017-Feb-15 10:29N 51°16' E 004°21'0 0.0
2017-Feb-15 09:29N 51°16' E 004°21'0 0.0
2017-Feb-15 08:17N 51°16' E 004°21'0 0.0
2017-Feb-15 07:32N 51°16' E 004°21'0 0.0
2017-Feb-15 06:32N 51°16' E 004°21'0 0.0
2017-Feb-15 05:32N 51°16' E 004°21'0 0.0
2017-Feb-15 04:32N 51°16' E 004°21'0 0.0
2017-Feb-15 03:32N 51°16' E 004°21'0 0.0
2017-Feb-15 02:32N 51°16' E 004°21'0 0.0
2017-Feb-15 01:32N 51°16' E 004°21'0 0.0
2017-Feb-15 00:32N 51°16' E 004°21'0 0.0
2017-Feb-14 23:32N 51°16' E 004°21'0 0.0
2017-Feb-14 22:32N 51°16' E 004°21'0 0.0
2017-Feb-14 21:32N 51°16' E 004°21'0 0.0
2017-Feb-14 20:32N 51°16' E 004°21'0 0.0
2017-Feb-14 19:32N 51°16' E 004°21'0 0.0
2017-Feb-14 18:32N 51°16' E 004°21'0 0.0
2017-Feb-14 17:32N 51°16' E 004°21'0 0.0
2017-Feb-14 16:32N 51°16' E 004°21'0 0.0
2017-Feb-14 15:32N 51°16' E 004°21'0 0.0
2017-Feb-14 14:32N 51°16' E 004°21'0 0.0
2017-Feb-14 13:32N 51°16' E 004°21'0 0.0
2017-Feb-14 12:32N 51°16' E 004°21'0 0.0
2017-Feb-14 11:29N 51°16' E 004°21'0 0.0
2017-Feb-14 10:32N 51°16' E 004°21'0 0.0
2017-Feb-14 09:32N 51°16' E 004°21'0 0.0
2017-Feb-14 08:32N 51°16' E 004°21'0 0.0
2017-Feb-14 07:32N 51°16' E 004°21'0 0.0
2017-Feb-14 06:29N 51°16' E 004°21'0 0.0
2017-Feb-14 05:32N 51°16' E 004°21'0 0.0
2017-Feb-14 04:32N 51°16' E 004°21'0 0.0
2017-Feb-14 03:32N 51°16' E 004°21'0 0.0
2017-Feb-14 02:32N 51°16' E 004°21'0 0.0
2017-Feb-14 01:32N 51°16' E 004°21'0 0.0
2017-Feb-14 00:32N 51°16' E 004°21'0 0.0
2017-Feb-13 23:32N 51°16' E 004°21'0 0.0
2017-Feb-13 22:32N 51°16' E 004°21'0 0.0
2017-Feb-13 21:29N 51°16' E 004°21'0 0.0
2017-Feb-13 20:29N 51°16' E 004°21'0 0.0
2017-Feb-13 19:32N 51°16' E 004°21'0 0.0
2017-Feb-13 18:29N 51°16' E 004°21'0 0.0
2017-Feb-13 17:32N 51°16' E 004°21'0 0.0
2017-Feb-13 16:32N 51°16' E 004°21'0 0.0
2017-Feb-13 15:26N 51°16' E 004°21'0 0.0
2017-Feb-13 14:32N 51°16' E 004°21'0 0.0
2017-Feb-13 13:32N 51°16' E 004°21'0 0.0
2017-Feb-13 12:32N 51°16' E 004°21'0 0.0
2017-Feb-13 11:29N 51°16' E 004°21'0 0.0
2017-Feb-13 10:32N 51°16' E 004°21'0 0.0
2017-Feb-13 09:32N 51°16' E 004°21'0 0.0
2017-Feb-13 08:32N 51°16' E 004°21'0 0.0
2017-Feb-13 07:29N 51°16' E 004°21'0 0.0
2017-Feb-13 06:29N 51°16' E 004°21'0 0.0
2017-Feb-13 05:32N 51°16' E 004°21'0 0.0
2017-Feb-13 04:32N 51°16' E 004°21'0 0.0
2017-Feb-13 03:32N 51°16' E 004°21'0 0.0
2017-Feb-13 02:32N 51°16' E 004°21'0 0.0
2017-Feb-13 01:26N 51°16' E 004°21'0 0.0
2017-Feb-13 00:32N 51°16' E 004°21'0 0.0
2017-Feb-12 23:30N 51°16' E 004°21'4 4.3
2017-Feb-12 22:33N 51°20' E 004°18'1 1.0
2017-Feb-12 21:33N 51°21' E 004°17'0 0.3
2017-Feb-12 20:33N 51°21' E 004°16'5 5.0
2017-Feb-12 19:33N 51°23' E 004°09'7 7.0
2017-Feb-12 18:33N 51°26' E 003°59'8 8.1
2017-Feb-12 17:33N 51°21' E 003°50'9 8.9
2017-Feb-12 16:33N 51°26' E 003°39'9 8.6
2017-Feb-12 15:33N 51°25' E 003°25'1212.3
2017-Feb-12 14:33N 51°24' E 003°05'1212.5
2017-Feb-12 13:33N 51°22' E 002°46'8 8.0
2017-Feb-12 12:33N 51°20' E 002°33'0 0.2
2017-Feb-12 11:33N 51°20' E 002°33'0 0.0
2017-Feb-12 10:30N 51°20' E 002°33'0 0.0
2017-Feb-12 09:33N 51°20' E 002°33'0 0.0
2017-Feb-12 08:33N 51°20' E 002°33'0 0.0
2017-Feb-12 07:33N 51°20' E 002°33'0 0.0
2017-Feb-12 06:30N 51°20' E 002°33'0 0.0
2017-Feb-12 05:33N 51°20' E 002°33'0 0.2
2017-Feb-12 04:33N 51°20' E 002°33'0 0.0
2017-Feb-12 03:33N 51°20' E 002°33'0 0.0
2017-Feb-12 02:33N 51°20' E 002°33'0 0.0
2017-Feb-12 01:33N 51°20' E 002°33'0 0.1
2017-Feb-12 00:33N 51°20' E 002°33'0 0.2
2017-Feb-11 23:33N 51°20' E 002°33'  
Track history (hours):
 
Tides and Currents Weather Stations Pressure Air Temp Water Temp Dewpoint Dewpoint Depression Visibility Wind Speed Wind Dir Waves Ship Positions

Valle Azzurra

Last reported at 2017-Feb-21 23:33 UTC. Time now 2017-Mar-30 02:38 UTC.
Position N 27°35' W 015°14'.
Warning: this ship's position is 36 days out of date.

Length 183 m; draft 11.5 m.

Type: Tanker. MMSI: 247226600.

Date/timePositionNaut miles runAvg speedWind from/ knotsBaromVisibWave heightAir tempDewpointWater temp
2017-Feb-21 23:33N 27°35' W 015°14'1313.6
2017-Feb-21 22:33N 27°47' W 015°09'1313.5
2017-Feb-21 21:33N 27°60' W 015°04'1313.3
2017-Feb-21 20:33N 28°12' W 014°58'1313.1
2017-Feb-21 19:33N 28°24' W 014°53'1313.1
2017-Feb-21 18:32N 28°37' W 014°48'64613.2
2017-Feb-19 17:29N 39°02' W 011°30'63212.9
2017-Feb-17 16:33N 48°46' W 005°54'1211.8
2017-Feb-17 15:33N 48°56' W 005°45'1312.9
2017-Feb-17 14:31N 49°03' W 005°27'1313.3
2017-Feb-17 13:33N 49°09' W 005°10'5112.6
2017-Feb-17 09:32N 49°35' W 004°03'1111.6
2017-Feb-17 08:33N 49°41' W 003°48'1212.0
2017-Feb-17 07:34N 49°47' W 003°32'1312.8
2017-Feb-17 06:33N 49°53' W 003°15'1413.7
2017-Feb-17 05:33N 49°59' W 002°56'2014.4
2017-Feb-17 04:09N 50°04' W 002°26'1113.8
2017-Feb-17 03:23N 50°07' W 002°10'1112.8
2017-Feb-17 02:33N 50°10' W 001°54'1111.4
2017-Feb-17 01:33N 50°13' W 001°37'1010.2
2017-Feb-17 00:33N 50°16' W 001°21'9 9.5
2017-Feb-16 23:33N 50°18' W 001°07'10 9.7
2017-Feb-16 22:33N 50°21' W 000°52'1111.2
2017-Feb-16 21:33N 50°24' W 000°36'1212.5
2017-Feb-16 20:33N 50°28' W 000°17'1313.2
2017-Feb-16 19:33N 50°31' E 000°03'1413.4
2017-Feb-16 18:33N 50°35' E 000°24'3611.7
2017-Feb-16 15:29N 50°54' E 001°11'9 9.8
2017-Feb-16 14:33N 51°01' E 001°21'1010.4
2017-Feb-16 13:33N 51°07' E 001°34'1212.3
2017-Feb-16 12:33N 51°15' E 001°49'1212.0
2017-Feb-16 11:33N 51°24' E 002°02'1212.3
2017-Feb-16 10:33N 51°21' E 002°21'1312.8
2017-Feb-16 09:33N 51°22' E 002°41'1211.6
2017-Feb-16 08:33N 51°24' E 002°60'1212.4
2017-Feb-16 07:33N 51°24' E 003°20'1212.0
2017-Feb-16 06:33N 51°26' E 003°39'10 9.9
2017-Feb-16 05:33N 51°21' E 003°52'8 7.6
2017-Feb-16 04:33N 51°25' E 004°02'6 5.9
2017-Feb-16 03:33N 51°24' E 004°11'5 5.0
2017-Feb-16 02:34N 51°21' E 004°17'0 0.0
2017-Feb-16 01:33N 51°21' E 004°17'1 0.5
2017-Feb-16 00:33N 51°21' E 004°18'5 4.6
2017-Feb-15 23:33N 51°16' E 004°21'0 0.0
2017-Feb-15 22:32N 51°16' E 004°21'0 0.0
2017-Feb-15 21:32N 51°16' E 004°21'0 0.0
2017-Feb-15 20:32N 51°16' E 004°21'0 0.0
2017-Feb-15 19:23N 51°16' E 004°21'0 0.0
2017-Feb-15 18:29N 51°16' E 004°21'0 0.0
2017-Feb-15 17:32N 51°16' E 004°21'0 0.0
2017-Feb-15 16:29N 51°16' E 004°21'0 0.0
2017-Feb-15 15:26N 51°16' E 004°21'0 0.0
2017-Feb-15 14:32N 51°16' E 004°21'0 0.0
2017-Feb-15 13:32N 51°16' E 004°21'0 0.0
2017-Feb-15 12:26N 51°16' E 004°21'0 0.0
2017-Feb-15 11:29N 51°16' E 004°21'0 0.0
2017-Feb-15 10:29N 51°16' E 004°21'0 0.0
2017-Feb-15 09:29N 51°16' E 004°21'0 0.0
2017-Feb-15 08:17N 51°16' E 004°21'0 0.0
2017-Feb-15 07:32N 51°16' E 004°21'0 0.0
2017-Feb-15 06:32N 51°16' E 004°21'0 0.0
2017-Feb-15 05:32N 51°16' E 004°21'0 0.0
2017-Feb-15 04:32N 51°16' E 004°21'0 0.0
2017-Feb-15 03:32N 51°16' E 004°21'0 0.0
2017-Feb-15 02:32N 51°16' E 004°21'0 0.0
2017-Feb-15 01:32N 51°16' E 004°21'0 0.0
2017-Feb-15 00:32N 51°16' E 004°21'0 0.0
2017-Feb-14 23:32N 51°16' E 004°21'0 0.0
2017-Feb-14 22:32N 51°16' E 004°21'0 0.0
2017-Feb-14 21:32N 51°16' E 004°21'0 0.0
2017-Feb-14 20:32N 51°16' E 004°21'0 0.0
2017-Feb-14 19:32N 51°16' E 004°21'0 0.0
2017-Feb-14 18:32N 51°16' E 004°21'0 0.0
2017-Feb-14 17:32N 51°16' E 004°21'0 0.0
2017-Feb-14 16:32N 51°16' E 004°21'0 0.0
2017-Feb-14 15:32N 51°16' E 004°21'0 0.0
2017-Feb-14 14:32N 51°16' E 004°21'0 0.0
2017-Feb-14 13:32N 51°16' E 004°21'0 0.0
2017-Feb-14 12:32N 51°16' E 004°21'0 0.0
2017-Feb-14 11:29N 51°16' E 004°21'0 0.0
2017-Feb-14 10:32N 51°16' E 004°21'0 0.0
2017-Feb-14 09:32N 51°16' E 004°21'0 0.0
2017-Feb-14 08:32N 51°16' E 004°21'0 0.0
2017-Feb-14 07:32N 51°16' E 004°21'0 0.0
2017-Feb-14 06:29N 51°16' E 004°21'0 0.0
2017-Feb-14 05:32N 51°16' E 004°21'0 0.0
2017-Feb-14 04:32N 51°16' E 004°21'0 0.0
2017-Feb-14 03:32N 51°16' E 004°21'0 0.0
2017-Feb-14 02:32N 51°16' E 004°21'0 0.0
2017-Feb-14 01:32N 51°16' E 004°21'0 0.0
2017-Feb-14 00:32N 51°16' E 004°21'0 0.0
2017-Feb-13 23:32N 51°16' E 004°21'0 0.0
2017-Feb-13 22:32N 51°16' E 004°21'0 0.0
2017-Feb-13 21:29N 51°16' E 004°21'0 0.0
2017-Feb-13 20:29N 51°16' E 004°21'0 0.0
2017-Feb-13 19:32N 51°16' E 004°21'0 0.0
2017-Feb-13 18:29N 51°16' E 004°21'0 0.0
2017-Feb-13 17:32N 51°16' E 004°21'0 0.0
2017-Feb-13 16:32N 51°16' E 004°21'0 0.0
2017-Feb-13 15:26N 51°16' E 004°21'0 0.0
2017-Feb-13 14:32N 51°16' E 004°21'0 0.0
2017-Feb-13 13:32N 51°16' E 004°21'0 0.0
2017-Feb-13 12:32N 51°16' E 004°21'0 0.0
2017-Feb-13 11:29N 51°16' E 004°21'0 0.0
2017-Feb-13 10:32N 51°16' E 004°21'0 0.0
2017-Feb-13 09:32N 51°16' E 004°21'0 0.0
2017-Feb-13 08:32N 51°16' E 004°21'0 0.0
2017-Feb-13 07:29N 51°16' E 004°21'0 0.0
2017-Feb-13 06:29N 51°16' E 004°21'0 0.0
2017-Feb-13 05:32N 51°16' E 004°21'0 0.0
2017-Feb-13 04:32N 51°16' E 004°21'0 0.0
2017-Feb-13 03:32N 51°16' E 004°21'0 0.0
2017-Feb-13 02:32N 51°16' E 004°21'0 0.0
2017-Feb-13 01:26N 51°16' E 004°21'0 0.0
2017-Feb-13 00:32N 51°16' E 004°21'0 0.0
2017-Feb-12 23:30N 51°16' E 004°21'4 4.3
2017-Feb-12 22:33N 51°20' E 004°18'1 1.0
2017-Feb-12 21:33N 51°21' E 004°17'0 0.3
2017-Feb-12 20:33N 51°21' E 004°16'5 5.0
2017-Feb-12 19:33N 51°23' E 004°09'7 7.0
2017-Feb-12 18:33N 51°26' E 003°59'8 8.1
2017-Feb-12 17:33N 51°21' E 003°50'9 8.9
2017-Feb-12 16:33N 51°26' E 003°39'9 8.6
2017-Feb-12 15:33N 51°25' E 003°25'1212.3
2017-Feb-12 14:33N 51°24' E 003°05'1212.5
2017-Feb-12 13:33N 51°22' E 002°46'8 8.0
2017-Feb-12 12:33N 51°20' E 002°33'0 0.2
2017-Feb-12 11:33N 51°20' E 002°33'0 0.0
2017-Feb-12 10:30N 51°20' E 002°33'0 0.0
2017-Feb-12 09:33N 51°20' E 002°33'0 0.0
2017-Feb-12 08:33N 51°20' E 002°33'0 0.0
2017-Feb-12 07:33N 51°20' E 002°33'0 0.0
2017-Feb-12 06:30N 51°20' E 002°33'0 0.0
2017-Feb-12 05:33N 51°20' E 002°33'0 0.2
2017-Feb-12 04:33N 51°20' E 002°33'0 0.0
2017-Feb-12 03:33N 51°20' E 002°33'0 0.0
2017-Feb-12 02:33N 51°20' E 002°33'0 0.0
2017-Feb-12 01:33N 51°20' E 002°33'0 0.1
2017-Feb-12 00:33N 51°20' E 002°33'0 0.2
2017-Feb-11 23:33N 51°20' E 002°33'  

Dump ship's entire track history